Time;durP1;ratioP1;P1;durP2;ratioP2;P2;SDS_P1;SDS_P2;PMS_P1;PMS_P2;Temp;Humidity;BMP_temperature;BMP_pressure;BME280_temperature;BME280_humidity;BME280_pressure;Samples;Min_cycle;Max_cycle;Signal;HPM_P1;HPM_P2
2020/12/25 00:01:07;;;;;;;3.33;3.13;;;;;;;;;;5097070;28;20233;-86
2020/12/25 00:03:33;;;;;;;3.23;2.90;;;;;;;;;;5096889;28;20218;-86
2020/12/25 00:06:00;;;;;;;3.30;2.90;;;;;;;;;;5096511;28;20252;-85
2020/12/25 00:08:26;;;;;;;2.60;2.50;;;;;;;;;;5096682;28;20233;-87
2020/12/25 00:10:52;;;;;;;2.80;2.60;;;;;;;;;;5096936;28;20233;-86
2020/12/25 00:13:19;;;;;;;2.60;2.43;;;;;;;;;;5096182;28;20246;-85
2020/12/25 00:15:45;;;;;;;2.40;2.30;;;;;;;;;;5096752;28;20233;-86
2020/12/25 00:18:11;;;;;;;2.30;2.20;;;;;;;;;;5096222;28;20274;-85
2020/12/25 00:20:37;;;;;;;2.00;1.90;;;;;;;;;;5096624;28;20230;-87
2020/12/25 00:23:04;;;;;;;2.33;2.13;;;;;;;;;;5096255;28;20229;-88
2020/12/25 00:25:30;;;;;;;2.53;2.33;;;;;;;;;;5096242;28;20594;-86
2020/12/25 00:27:57;;;;;;;2.47;2.33;;;;;;;;;;5095310;28;20233;-86
2020/12/25 00:30:23;;;;;;;2.10;2.00;;;;;;;;;;5096198;28;20602;-86
2020/12/25 00:32:49;;;;;;;2.40;2.20;;;;;;;;;;5096327;28;20261;-84
2020/12/25 00:35:15;;;;;;;2.20;2.10;;;;;;;;;;5095905;28;20253;-87
2020/12/25 00:37:41;;;;;;;2.23;2.10;;;;;;;;;;5096125;28;20225;-85
2020/12/25 00:40:08;;;;;;;2.27;2.07;;;;;;;;;;5096265;28;20229;-86
2020/12/25 00:42:34;;;;;;;2.27;2.17;;;;;;;;;;5095763;28;20230;-86
2020/12/25 00:45:00;;;;;;;2.10;2.00;;;;;;;;;;5095978;28;20617;-86
2020/12/25 00:47:26;;;;;;;2.27;2.17;;;;;;;;;;5095904;28;20226;-86
2020/12/25 00:49:52;;;;;;;2.00;1.90;;;;;;;;;;5095716;28;20236;-86
2020/12/25 00:52:18;;;;;;;2.03;1.93;;;;;;;;;;5096103;28;20812;-87
2020/12/25 00:54:44;;;;;;;2.03;2.00;;;;;;;;;;5094309;28;20213;-86
2020/12/25 00:57:11;;;;;;;2.30;2.13;;;;;;;;;;5095842;28;20233;-85
2020/12/25 00:59:37;;;;;;;2.60;2.07;;;;;;;;;;5095567;28;20229;-86
2020/12/25 01:02:04;;;;;;;2.23;2.13;;;;;;;;;;5095750;28;20506;-85
2020/12/25 01:04:30;;;;;;;2.30;2.20;;;;;;;;;;5095552;28;20230;-86
2020/12/25 01:06:56;;;;;;;2.13;1.93;;;;;;;;;;5095748;28;20241;-86
2020/12/25 01:09:24;;;;;;;2.03;1.97;;;;;;;;;;5095387;28;20225;-86
2020/12/25 01:11:50;;;;;;;2.20;2.10;;;;;;;;;;5095497;28;20244;-85
2020/12/25 01:14:17;;;;;;;3.60;2.20;;;;;;;;;;5095314;28;20228;-86
2020/12/25 01:16:43;;;;;;;2.47;2.37;;;;;;;;;;5095720;28;20194;-86
2020/12/25 01:19:09;;;;;;;2.60;2.40;;;;;;;;;;5095235;28;20237;-86
2020/12/25 01:21:35;;;;;;;2.60;2.50;;;;;;;;;;5095571;28;20270;-85
2020/12/25 01:24:01;;;;;;;2.63;2.50;;;;;;;;;;5095511;28;20533;-85
2020/12/25 01:26:28;;;;;;;3.00;2.80;;;;;;;;;;5095818;28;20229;-86
2020/12/25 01:29:00;;;;;;;2.70;2.60;;;;;;;;;;5095254;28;20243;-86
2020/12/25 01:31:27;;;;;;;3.33;3.03;;;;;;;;;;5095030;28;20299;-86
2020/12/25 01:33:53;;;;;;;3.30;3.00;;;;;;;;;;5094355;28;20256;-86
2020/12/25 01:36:20;;;;;;;5.40;3.27;;;;;;;;;;5095023;28;20587;-86
2020/12/25 01:38:46;;;;;;;3.27;2.97;;;;;;;;;;5095226;28;20236;-86
2020/12/25 01:41:12;;;;;;;3.00;2.80;;;;;;;;;;5094527;28;20617;-85
2020/12/25 01:43:38;;;;;;;4.63;3.47;;;;;;;;;;5095443;28;20230;-86
2020/12/25 01:46:04;;;;;;;4.00;3.60;;;;;;;;;;5095359;28;20279;-85
2020/12/25 01:48:32;;;;;;;6.10;3.53;;;;;;;;;;5093447;28;20202;-85
2020/12/25 01:50:58;;;;;;;4.03;3.50;;;;;;;;;;5095239;28;20209;-86
2020/12/25 01:53:25;;;;;;;4.00;3.60;;;;;;;;;;5094661;28;20559;-85
2020/12/25 01:55:53;;;;;;;3.90;3.60;;;;;;;;;;5095178;28;20244;-85
2020/12/25 01:58:20;;;;;;;7.43;4.13;;;;;;;;;;5094827;28;20236;-85
2020/12/25 02:00:47;;;;;;;4.23;3.90;;;;;;;;;;5095197;28;20226;-85
2020/12/25 02:03:14;;;;;;;4.77;4.27;;;;;;;;;;5094538;28;20483;-85
2020/12/25 02:05:42;;;;;;;4.50;4.13;;;;;;;;;;5095157;28;20217;-85
2020/12/25 02:08:08;;;;;;;4.20;3.90;;;;;;;;;;5094773;28;20214;-85
2020/12/25 02:10:36;;;;;;;4.50;4.10;;;;;;;;;;5095129;28;20244;-85
2020/12/25 02:13:02;;;;;;;5.20;4.50;;;;;;;;;;5094412;28;20614;-85
2020/12/25 02:15:28;;;;;;;4.77;4.37;;;;;;;;;;5094985;28;20216;-85
2020/12/25 02:17:55;;;;;;;5.63;4.20;;;;;;;;;;5094441;28;20233;-85
2020/12/25 02:20:21;;;;;;;4.30;3.90;;;;;;;;;;5095067;28;20209;-85
2020/12/25 02:22:48;;;;;;;5.47;4.50;;;;;;;;;;5094720;28;20229;-84
2020/12/25 02:25:14;;;;;;;5.83;4.27;;;;;;;;;;5094890;28;20226;-85
2020/12/25 02:27:40;;;;;;;5.20;4.23;;;;;;;;;;5094403;28;20532;-85
2020/12/25 02:30:07;;;;;;;5.87;4.50;;;;;;;;;;5094828;28;20206;-85
2020/12/25 02:32:33;;;;;;;5.07;4.60;;;;;;;;;;5093456;28;20249;-86
2020/12/25 02:34:59;;;;;;;4.70;4.40;;;;;;;;;;5094193;28;20261;-84
2020/12/25 02:37:25;;;;;;;5.00;4.40;;;;;;;;;;5094475;28;20490;-85
2020/12/25 02:39:52;;;;;;;4.53;4.17;;;;;;;;;;5094733;28;20229;-85
2020/12/25 02:42:18;;;;;;;6.57;5.13;;;;;;;;;;5094523;28;20230;-86
2020/12/25 02:44:45;;;;;;;4.60;4.20;;;;;;;;;;5094194;28;20233;-85
2020/12/25 02:47:11;;;;;;;5.57;4.00;;;;;;;;;;5094517;28;20225;-85
2020/12/25 02:49:37;;;;;;;5.80;4.40;;;;;;;;;;5094637;28;20663;-85
2020/12/25 02:52:03;;;;;;;5.63;4.43;;;;;;;;;;5096833;28;20273;-85
2020/12/25 02:54:29;;;;;;;5.43;4.93;;;;;;;;;;5098220;28;20688;-85
2020/12/25 02:56:56;;;;;;;4.70;4.30;;;;;;;;;;5098195;28;20232;-85
2020/12/25 02:59:23;;;;;;;6.57;4.50;;;;;;;;;;5098076;28;20206;-84
2020/12/25 03:01:50;;;;;;;6.50;5.17;;;;;;;;;;5098687;28;20241;-84
2020/12/25 03:04:16;;;;;;;5.13;4.67;;;;;;;;;;5098172;28;20502;-85
2020/12/25 03:06:42;;;;;;;5.90;4.47;;;;;;;;;;5098153;28;20234;-85
2020/12/25 03:09:08;;;;;;;5.37;4.67;;;;;;;;;;5097971;28;20535;-84
2020/12/25 03:11:34;;;;;;;4.73;4.33;;;;;;;;;;5097774;28;20240;-85
2020/12/25 03:14:01;;;;;;;6.73;4.97;;;;;;;;;;5097910;28;20245;-86
2020/12/25 03:16:30;;;;;;;7.80;4.73;;;;;;;;;;5097858;28;20540;-85
2020/12/25 03:18:56;;;;;;;6.33;4.80;;;;;;;;;;5097734;28;20240;-86
2020/12/25 03:21:22;;;;;;;5.10;4.50;;;;;;;;;;5097801;28;20201;-86
2020/12/25 03:23:48;;;;;;;6.47;4.83;;;;;;;;;;5097820;28;20202;-86
2020/12/25 03:26:14;;;;;;;4.80;4.20;;;;;;;;;;5097485;28;20206;-84
2020/12/25 03:28:40;;;;;;;5.27;4.77;;;;;;;;;;5097524;28;20240;-85
2020/12/25 03:31:07;;;;;;;7.97;4.70;;;;;;;;;;5097645;28;20240;-86
2020/12/25 03:33:33;;;;;;;6.20;4.93;;;;;;;;;;5096980;28;20253;-86
2020/12/25 03:35:59;;;;;;;5.33;4.50;;;;;;;;;;5097491;28;20640;-84
2020/12/25 03:38:26;;;;;;;5.73;4.87;;;;;;;;;;5096951;28;20237;-85
2020/12/25 03:40:52;;;;;;;4.70;3.87;;;;;;;;;;5097325;28;20225;-85
2020/12/25 03:43:18;;;;;;;5.17;4.67;;;;;;;;;;5097349;28;20233;-85
2020/12/25 03:45:45;;;;;;;4.80;4.17;;;;;;;;;;5097265;28;20654;-85
2020/12/25 03:48:12;;;;;;;5.27;4.40;;;;;;;;;;5096998;28;20641;-85
2020/12/25 03:50:38;;;;;;;5.20;4.70;;;;;;;;;;5097372;28;20232;-84
2020/12/25 03:53:04;;;;;;;5.67;4.53;;;;;;;;;;5097157;28;20599;-85
2020/12/25 03:55:30;;;;;;;5.03;4.53;;;;;;;;;;5097265;28;20233;-85
2020/12/25 03:57:56;;;;;;;6.00;4.67;;;;;;;;;;5096625;28;20813;-86
2020/12/25 04:00:22;;;;;;;5.00;4.57;;;;;;;;;;5130122;27;20232;-85
2020/12/25 04:02:49;;;;;;;6.70;5.00;;;;;;;;;;5095790;28;20237;-85
2020/12/25 04:05:16;;;;;;;6.03;4.93;;;;;;;;;;5096873;28;20534;-85
2020/12/25 04:07:42;;;;;;;5.87;5.17;;;;;;;;;;5096421;28;20229;-84
2020/12/25 04:10:08;;;;;;;6.53;4.97;;;;;;;;;;5096998;28;20233;-85
2020/12/25 04:12:34;;;;;;;5.80;5.10;;;;;;;;;;5096325;28;20253;-85
2020/12/25 04:15:00;;;;;;;6.07;4.90;;;;;;;;;;5096863;28;20241;-84
2020/12/25 04:17:26;;;;;;;5.43;4.33;;;;;;;;;;5096363;28;20641;-85
2020/12/25 04:19:52;;;;;;;8.67;5.20;;;;;;;;;;5096655;28;20225;-85
2020/12/25 04:22:19;;;;;;;5.57;5.00;;;;;;;;;;5096236;28;20230;-86
2020/12/25 04:24:45;;;;;;;7.53;4.33;;;;;;;;;;5096561;28;20229;-84
2020/12/25 04:27:12;;;;;;;5.67;4.50;;;;;;;;;;5096345;28;20234;-85
2020/12/25 04:29:38;;;;;;;6.17;4.60;;;;;;;;;;5096764;28;20233;-84
2020/12/25 04:32:04;;;;;;;6.33;4.63;;;;;;;;;;5096125;28;20230;-85
2020/12/25 04:34:30;;;;;;;6.97;5.00;;;;;;;;;;5096072;28;20272;-84
2020/12/25 04:36:56;;;;;;;4.77;4.27;;;;;;;;;;5096115;28;20229;-85
2020/12/25 04:39:23;;;;;;;6.67;4.37;;;;;;;;;;5096125;28;20554;-84
2020/12/25 04:41:49;;;;;;;7.33;4.60;;;;;;;;;;5095389;28;20205;-84
2020/12/25 04:44:15;;;;;;;4.70;4.30;;;;;;;;;;5096068;28;20229;-84
2020/12/25 04:46:41;;;;;;;6.63;4.33;;;;;;;;;;5095560;28;20222;-84
2020/12/25 04:49:08;;;;;;;5.33;4.47;;;;;;;;;;5095894;28;20240;-84
2020/12/25 04:51:34;;;;;;;4.40;4.00;;;;;;;;;;5096045;28;20498;-85
2020/12/25 04:54:01;;;;;;;6.77;4.43;;;;;;;;;;5095606;28;20264;-84
2020/12/25 04:56:27;;;;;;;4.07;3.73;;;;;;;;;;5095867;28;20233;-84
2020/12/25 04:58:54;;;;;;;4.30;3.90;;;;;;;;;;5095720;28;20210;-84
2020/12/25 05:01:20;;;;;;;4.50;4.10;;;;;;;;;;5095785;28;20213;-83
2020/12/25 05:03:46;;;;;;;5.10;4.17;;;;;;;;;;5095669;28;20236;-84
2020/12/25 05:06:13;;;;;;;3.77;3.57;;;;;;;;;;5095166;28;20244;-84
2020/12/25 05:08:40;;;;;;;4.23;3.83;;;;;;;;;;5095505;28;20614;-84
2020/12/25 05:11:07;;;;;;;4.67;3.70;;;;;;;;;;5095568;28;20615;-84
2020/12/25 05:13:34;;;;;;;4.93;4.13;;;;;;;;;;5095452;28;20557;-84
2020/12/25 05:16:00;;;;;;;3.90;3.60;;;;;;;;;;5095735;28;20214;-84
2020/12/25 05:18:28;;;;;;;6.00;4.23;;;;;;;;;;5095365;28;20638;-83
2020/12/25 05:20:54;;;;;;;4.53;3.87;;;;;;;;;;5095965;28;20240;-84
2020/12/25 05:23:29;;;;;;;4.33;4.03;;;;;;;;;;5095480;28;20550;-83
2020/12/25 05:25:57;;;;;;;4.37;3.97;;;;;;;;;;5095316;28;20240;-84
2020/12/25 05:28:24;;;;;;;4.70;4.20;;;;;;;;;;5095153;28;20495;-84
2020/12/25 05:30:51;;;;;;;4.00;3.50;;;;;;;;;;5095395;28;20225;-82
2020/12/25 05:33:17;;;;;;;4.83;4.30;;;;;;;;;;5094954;28;20242;-83
2020/12/25 05:35:43;;;;;;;3.90;3.60;;;;;;;;;;5094958;28;20241;-84
2020/12/25 05:38:10;;;;;;;4.43;3.63;;;;;;;;;;5095266;28;20520;-84
2020/12/25 05:40:42;;;;;;;4.00;3.70;;;;;;;;;;5095468;28;20240;-83
2020/12/25 05:43:08;;;;;;;4.60;4.03;;;;;;;;;;5095275;28;20538;-83
2020/12/25 05:45:39;;;;;;;3.97;3.67;;;;;;;;;;5095138;28;20225;-83
2020/12/25 05:48:06;;;;;;;4.80;3.77;;;;;;;;;;5095193;28;20205;-84
2020/12/25 05:50:32;;;;;;;4.33;3.80;;;;;;;;;;5095120;28;20649;-83
2020/12/25 05:52:58;;;;;;;4.50;3.90;;;;;;;;;;5094998;28;20249;-84
2020/12/25 05:55:25;;;;;;;4.33;3.97;;;;;;;;;;5095515;28;20235;-84
2020/12/25 05:57:52;;;;;;;4.13;3.83;;;;;;;;;;5094620;28;20226;-83
2020/12/25 06:00:18;;;;;;;4.83;4.13;;;;;;;;;;5095209;28;20530;-84
2020/12/25 06:02:44;;;;;;;4.60;3.87;;;;;;;;;;5094915;28;20225;-83
2020/12/25 06:05:12;;;;;;;4.63;4.23;;;;;;;;;;5095121;28;20241;-83
2020/12/25 06:07:46;;;;;;;5.40;4.27;;;;;;;;;;5095111;28;20270;-84
2020/12/25 06:10:15;;;;;;;4.20;3.80;;;;;;;;;;5094527;28;20240;-83
2020/12/25 06:12:41;;;;;;;7.27;4.47;;;;;;;;;;5127811;28;20220;-83
2020/12/25 06:15:09;;;;;;;5.33;3.97;;;;;;;;;;5093751;28;20197;-83
2020/12/25 06:17:38;;;;;;;5.17;4.50;;;;;;;;;;5094315;28;20245;-83
2020/12/25 06:20:04;;;;;;;4.97;4.30;;;;;;;;;;5094516;28;20240;-83
2020/12/25 06:22:34;;;;;;;4.60;4.20;;;;;;;;;;5094748;28;20233;-81
2020/12/25 06:25:01;;;;;;;5.70;4.90;;;;;;;;;;5094890;28;20906;-83
2020/12/25 06:27:28;;;;;;;4.63;4.03;;;;;;;;;;5098029;28;20614;-83
2020/12/25 06:29:55;;;;;;;4.90;4.50;;;;;;;;;;5098847;28;20206;-83
2020/12/25 06:32:22;;;;;;;6.20;4.73;;;;;;;;;;5098328;28;20210;-84
2020/12/25 06:34:49;;;;;;;9.53;4.97;;;;;;;;;;5098626;28;20257;-83
2020/12/25 06:37:16;;;;;;;5.57;4.17;;;;;;;;;;5098069;28;20230;-84
2020/12/25 06:39:49;;;;;;;8.50;4.73;;;;;;;;;;5098502;28;20274;-82
2020/12/25 06:42:19;;;;;;;6.07;4.77;;;;;;;;;;5098562;28;20233;-84
2020/12/25 06:44:48;;;;;;;4.50;4.10;;;;;;;;;;5098722;28;20225;-84
2020/12/25 06:47:25;;;;;;;4.17;3.87;;;;;;;;;;5097592;28;20251;-82
2020/12/25 06:49:52;;;;;;;4.57;4.17;;;;;;;;;;5098396;28;20275;-83
2020/12/25 06:52:24;;;;;;;4.30;3.90;;;;;;;;;;5098331;28;20240;-81
2020/12/25 06:54:51;;;;;;;4.47;4.10;;;;;;;;;;5098049;28;20253;-82
2020/12/25 06:57:17;;;;;;;4.37;3.97;;;;;;;;;;5098425;28;20267;-82
2020/12/25 06:59:47;;;;;;;6.27;3.97;;;;;;;;;;5098445;28;20240;-86
2020/12/25 07:02:14;;;;;;;3.90;3.60;;;;;;;;;;5097873;28;20229;-82
2020/12/25 07:04:43;;;;;;;4.30;3.90;;;;;;;;;;5098243;28;20206;-81
2020/12/25 07:07:09;;;;;;;4.83;3.93;;;;;;;;;;5097816;28;20222;-82
2020/12/25 07:09:36;;;;;;;4.00;3.70;;;;;;;;;;5098644;28;20241;-81
2020/12/25 07:12:05;;;;;;;4.03;3.73;;;;;;;;;;5098040;28;20206;-81
2020/12/25 07:14:31;;;;;;;3.97;3.67;;;;;;;;;;5098195;28;20253;-88
2020/12/25 07:16:57;;;;;;;3.53;3.23;;;;;;;;;;5097714;28;20261;-80
2020/12/25 07:19:23;;;;;;;3.67;3.40;;;;;;;;;;5098074;28;20260;-81
2020/12/25 07:21:49;;;;;;;3.60;3.37;;;;;;;;;;5097787;28;20210;-82
2020/12/25 07:24:16;;;;;;;4.37;3.33;;;;;;;;;;5097900;28;20585;-81
2020/12/25 07:26:42;;;;;;;3.73;3.40;;;;;;;;;;5097689;28;20198;-90
2020/12/25 07:29:13;;;;;;;4.57;3.47;;;;;;;;;;5097785;28;20234;-83
2020/12/25 07:31:44;;;;;;;3.60;3.30;;;;;;;;;;5097789;28;20206;-81
2020/12/25 07:34:10;;;;;;;4.13;3.57;;;;;;;;;;5097325;28;20568;-85
2020/12/25 07:36:36;;;;;;;3.40;3.10;;;;;;;;;;5097702;28;20229;-82
2020/12/25 07:39:03;;;;;;;5.97;3.13;;;;;;;;;;5095836;28;20206;-82
2020/12/25 07:41:29;;;;;;;3.73;3.37;;;;;;;;;;5097435;28;20233;-80
2020/12/25 07:43:56;;;;;;;3.67;3.40;;;;;;;;;;5097253;28;20202;-82
2020/12/25 07:46:24;;;;;;;3.53;3.23;;;;;;;;;;5097371;28;20618;-82
2020/12/25 07:48:54;;;;;;;3.60;3.30;;;;;;;;;;5097114;28;20271;-82
2020/12/25 07:51:20;;;;;;;3.47;3.17;;;;;;;;;;5096918;28;20244;-80
2020/12/25 07:53:48;;;;;;;3.83;3.53;;;;;;;;;;5097138;28;20250;-83
2020/12/25 07:56:18;;;;;;;3.43;3.13;;;;;;;;;;5096997;28;20609;-81
2020/12/25 07:58:44;;;;;;;3.90;3.60;;;;;;;;;;5097122;28;20233;-81
2020/12/25 08:01:10;;;;;;;3.50;3.20;;;;;;;;;;5096953;28;20249;-82
2020/12/25 08:03:37;;;;;;;4.37;3.20;;;;;;;;;;5096798;28;20214;-81
2020/12/25 08:06:03;;;;;;;3.83;3.53;;;;;;;;;;5096877;28;20229;-81
2020/12/25 08:08:29;;;;;;;3.93;3.37;;;;;;;;;;5096843;28;20233;-83
2020/12/25 08:10:56;;;;;;;3.40;3.20;;;;;;;;;;5096819;28;20230;-82
2020/12/25 08:13:22;;;;;;;4.00;3.60;;;;;;;;;;5096937;28;20233;-81
2020/12/25 08:15:48;;;;;;;3.53;3.23;;;;;;;;;;5096804;28;20206;-81
2020/12/25 08:18:16;;;;;;;3.40;3.20;;;;;;;;;;5096460;28;20914;-82
2020/12/25 08:20:43;;;;;;;3.37;3.10;;;;;;;;;;5098004;28;20606;-82
2020/12/25 08:23:09;;;;;;;3.40;3.10;;;;;;;;;;5096035;28;20225;-84
2020/12/25 08:25:35;;;;;;;3.40;3.20;;;;;;;;;;5096381;28;20202;-81
2020/12/25 08:28:02;;;;;;;3.10;2.90;;;;;;;;;;5095854;28;20233;-82
2020/12/25 08:30:28;;;;;;;3.90;3.50;;;;;;;;;;5095662;28;20241;-82
2020/12/25 08:32:57;;;;;;;3.77;3.37;;;;;;;;;;5094754;28;20230;-82
2020/12/25 08:35:25;;;;;;;4.43;3.50;;;;;;;;;;5095152;28;20276;-81
2020/12/25 08:37:56;;;;;;;3.83;3.50;;;;;;;;;;5094355;28;20787;-81
2020/12/25 08:40:22;;;;;;;3.47;3.07;;;;;;;;;;5095168;28;20519;-82
2020/12/25 08:42:49;;;;;;;3.50;3.20;;;;;;;;;;5095669;28;20206;-82
2020/12/25 08:45:19;;;;;;;3.00;2.80;;;;;;;;;;5095552;28;20232;-83
2020/12/25 08:48:01;;;;;;;4.93;2.90;;;;;;;;;;5095570;28;20182;-82
2020/12/25 08:50:27;;;;;;;3.97;3.63;;;;;;;;;;5095825;28;20210;-85
2020/12/25 08:53:08;;;;;;;3.43;3.13;;;;;;;;;;5095788;28;20233;-84
2020/12/25 08:55:35;;;;;;;3.43;3.10;;;;;;;;;;5095999;28;20245;-83
2020/12/25 08:58:01;;;;;;;3.47;3.13;;;;;;;;;;5095746;28;20201;-83
2020/12/25 09:00:28;;;;;;;3.23;3.03;;;;;;;;;;5096014;28;20230;-83
2020/12/25 09:02:57;;;;;;;3.43;3.03;;;;;;;;;;5095443;28;20233;-83
2020/12/25 09:05:23;;;;;;;3.53;3.23;;;;;;;;;;5095830;28;20613;-82
2020/12/25 09:07:49;;;;;;;4.63;2.80;;;;;;;;;;5095680;28;20637;-81
2020/12/25 09:10:15;;;;;;;2.87;2.67;;;;;;;;;;5095902;28;20230;-82
2020/12/25 09:12:42;;;;;;;3.20;2.90;;;;;;;;;;5095981;28;20206;-82
2020/12/25 09:15:08;;;;;;;3.40;3.10;;;;;;;;;;5095954;28;20681;-82
2020/12/25 09:17:34;;;;;;;3.50;3.20;;;;;;;;;;5095665;28;20684;-82
2020/12/25 09:20:00;;;;;;;3.13;2.90;;;;;;;;;;5095757;28;20713;-81
2020/12/25 09:22:26;;;;;;;3.37;3.17;;;;;;;;;;5095785;28;20233;-83
2020/12/25 09:24:52;;;;;;;3.53;2.73;;;;;;;;;;5095581;28;20259;-84
2020/12/25 09:27:18;;;;;;;2.70;2.50;;;;;;;;;;5095218;28;20244;-83
2020/12/25 09:29:45;;;;;;;3.00;2.80;;;;;;;;;;5095534;28;20633;-82
2020/12/25 09:32:11;;;;;;;2.90;2.70;;;;;;;;;;5095150;28;20230;-86
2020/12/25 09:34:37;;;;;;;3.37;2.63;;;;;;;;;;5095121;28;20910;-84
2020/12/25 09:37:04;;;;;;;2.53;2.33;;;;;;;;;;5095083;28;20225;-82
2020/12/25 09:39:30;;;;;;;2.70;2.47;;;;;;;;;;5095352;28;20236;-82
2020/12/25 09:41:56;;;;;;;3.10;2.90;;;;;;;;;;5094818;28;20534;-82
2020/12/25 09:44:22;;;;;;;2.90;2.60;;;;;;;;;;5094957;28;20230;-82
2020/12/25 09:46:49;;;;;;;6.50;2.33;;;;;;;;;;5095142;28;20653;-84
2020/12/25 09:49:15;;;;;;;2.77;2.57;;;;;;;;;;5095181;28;20237;-83
2020/12/25 09:51:41;;;;;;;3.23;2.83;;;;;;;;;;5094952;28;20237;-82
2020/12/25 09:54:07;;;;;;;3.60;3.00;;;;;;;;;;5094860;28;20339;-82
2020/12/25 09:56:33;;;;;;;2.70;2.50;;;;;;;;;;5094945;28;20635;-82
2020/12/25 09:58:59;;;;;;;2.80;2.60;;;;;;;;;;5095145;28;20233;-83
2020/12/25 10:01:25;;;;;;;3.00;2.60;;;;;;;;;;5098247;28;20614;-84
2020/12/25 10:03:52;;;;;;;4.80;3.10;;;;;;;;;;5101833;28;20225;-85
2020/12/25 10:06:18;;;;;;;3.03;2.83;;;;;;;;;;5101248;28;20728;-86
2020/12/25 10:08:44;;;;;;;6.33;3.30;;;;;;;;;;5101984;28;20229;-87
2020/12/25 10:11:10;;;;;;;3.47;2.97;;;;;;;;;;5101239;28;20237;-83
2020/12/25 10:13:36;;;;;;;3.30;3.10;;;;;;;;;;5101872;28;20232;-83
2020/12/25 10:16:03;;;;;;;3.80;2.70;;;;;;;;;;5101420;28;20233;-85
2020/12/25 10:18:29;;;;;;;4.97;3.97;;;;;;;;;;5101896;28;20229;-84
2020/12/25 10:20:56;;;;;;;6.47;4.60;;;;;;;;;;5102003;28;20237;-86
2020/12/25 10:23:22;;;;;;;3.13;2.83;;;;;;;;;;5100436;28;20231;-84
2020/12/25 10:25:48;;;;;;;2.50;2.30;;;;;;;;;;5101085;28;20228;-85
2020/12/25 10:28:15;;;;;;;3.07;2.77;;;;;;;;;;5101844;28;20239;-85
2020/12/25 10:30:41;;;;;;;4.77;2.77;;;;;;;;;;5101534;28;20232;-83
2020/12/25 10:33:07;;;;;;;3.00;2.70;;;;;;;;;;5101676;28;20234;-85
2020/12/25 10:35:33;;;;;;;3.23;2.50;;;;;;;;;;5133777;27;20245;-83
2020/12/25 10:38:00;;;;;;;3.37;2.80;;;;;;;;;;5101295;28;20292;-84
2020/12/25 10:40:26;;;;;;;5.33;2.80;;;;;;;;;;5100702;28;20254;-84
2020/12/25 10:42:52;;;;;;;2.57;2.37;;;;;;;;;;5100333;28;20244;-82
2020/12/25 10:45:18;;;;;;;2.60;2.40;;;;;;;;;;5100739;28;20221;-84
2020/12/25 10:47:45;;;;;;;2.40;2.20;;;;;;;;;;5100792;28;20233;-82
2020/12/25 10:50:12;;;;;;;3.20;3.00;;;;;;;;;;5100386;28;20229;-83
2020/12/25 10:52:38;;;;;;;2.60;2.40;;;;;;;;;;5101050;28;20232;-83
2020/12/25 10:55:05;;;;;;;4.83;3.10;;;;;;;;;;5100044;28;20256;-83
2020/12/25 10:57:31;;;;;;;2.57;2.37;;;;;;;;;;5100658;28;20240;-83
2020/12/25 10:59:57;;;;;;;4.47;2.40;;;;;;;;;;5099061;28;20227;-83
2020/12/25 11:02:23;;;;;;;2.50;2.30;;;;;;;;;;5100654;28;20232;-83
2020/12/25 11:04:49;;;;;;;2.20;2.10;;;;;;;;;;5100273;28;20236;-83
2020/12/25 11:07:15;;;;;;;2.77;2.50;;;;;;;;;;5100438;28;20303;-85
2020/12/25 11:09:41;;;;;;;2.50;2.30;;;;;;;;;;5101111;28;20256;-82
2020/12/25 11:12:08;;;;;;;2.13;2.03;;;;;;;;;;5099800;28;20225;-87
2020/12/25 11:14:34;;;;;;;2.27;1.60;;;;;;;;;;5098278;28;20253;-81
2020/12/25 11:17:00;;;;;;;3.23;2.17;;;;;;;;;;5097299;28;20237;-81
2020/12/25 11:19:27;;;;;;;1.97;1.80;;;;;;;;;;5097928;28;20551;-83
2020/12/25 11:21:53;;;;;;;3.00;2.40;;;;;;;;;;5130589;27;20221;-83
2020/12/25 11:24:19;;;;;;;3.03;1.70;;;;;;;;;;5097475;28;20229;-82
2020/12/25 11:26:45;;;;;;;3.93;2.63;;;;;;;;;;5097739;28;20233;-80
2020/12/25 11:29:12;;;;;;;2.93;2.23;;;;;;;;;;5097941;28;20241;-81
2020/12/25 11:31:39;;;;;;;2.13;1.93;;;;;;;;;;5097657;28;20225;-80
2020/12/25 11:34:05;;;;;;;1.97;1.87;;;;;;;;;;5097291;28;20256;-82
2020/12/25 11:36:33;;;;;;;2.70;2.00;;;;;;;;;;5097114;28;20692;-81
2020/12/25 11:39:00;;;;;;;3.60;2.33;;;;;;;;;;5097509;28;20248;-86
2020/12/25 11:41:26;;;;;;;3.37;1.70;;;;;;;;;;5097193;28;20216;-82
2020/12/25 11:43:53;;;;;;;2.07;1.60;;;;;;;;;;5097576;28;20244;-80
2020/12/25 11:46:21;;;;;;;1.80;1.70;;;;;;;;;;5097327;28;20233;-91
2020/12/25 11:48:47;;;;;;;1.70;1.60;;;;;;;;;;5131539;27;20332;-81
2020/12/25 11:51:15;;;;;;;1.80;1.70;;;;;;;;;;5095811;28;20782;-82
2020/12/25 11:53:42;;;;;;;2.37;1.80;;;;;;;;;;5097418;28;20240;-85
2020/12/25 11:56:08;;;;;;;1.77;1.67;;;;;;;;;;5097507;28;20566;-81
2020/12/25 11:58:34;;;;;;;2.67;2.37;;;;;;;;;;5097704;28;20202;-83
2020/12/25 12:01:00;;;;;;;3.17;2.67;;;;;;;;;;5097138;28;20244;-82
2020/12/25 12:03:27;;;;;;;2.47;1.97;;;;;;;;;;5097375;28;20234;-83
2020/12/25 12:05:53;;;;;;;2.40;2.20;;;;;;;;;;5096506;28;20243;-84
2020/12/25 12:08:19;;;;;;;2.70;1.70;;;;;;;;;;5095592;28;20194;-86
2020/12/25 12:10:45;;;;;;;1.70;1.60;;;;;;;;;;5095439;28;20267;-84
2020/12/25 12:13:12;;;;;;;1.60;1.50;;;;;;;;;;5096849;28;20237;-81
2020/12/25 12:15:38;;;;;;;3.73;1.57;;;;;;;;;;5096857;28;20256;-83
2020/12/25 12:18:05;;;;;;;1.57;1.47;;;;;;;;;;5096579;28;20234;-81
2020/12/25 12:20:32;;;;;;;2.67;1.50;;;;;;;;;;5096638;28;20241;-84
2020/12/25 12:22:59;;;;;;;1.20;1.20;;;;;;;;;;5096516;28;20255;-84
2020/12/25 12:25:25;;;;;;;4.07;2.73;;;;;;;;;;5095646;28;20217;-82
2020/12/25 12:27:51;;;;;;;22.57;13.80;;;;;;;;;;5096574;28;20646;-81
2020/12/25 12:30:17;;;;;;;32.37;17.27;;;;;;;;;;5095772;28;20223;-85
2020/12/25 12:32:43;;;;;;;5.10;3.73;;;;;;;;;;5096544;28;20237;-82
2020/12/25 12:35:10;;;;;;;2.20;2.10;;;;;;;;;;5094340;28;20262;-85
2020/12/25 12:37:36;;;;;;;2.57;1.40;;;;;;;;;;5096587;28;20225;-86
2020/12/25 12:40:03;;;;;;;1.60;1.50;;;;;;;;;;5096489;28;20225;-84
2020/12/25 12:42:29;;;;;;;3.50;1.90;;;;;;;;;;5096369;28;20225;-87
2020/12/25 12:44:55;;;;;;;2.93;2.00;;;;;;;;;;5095713;28;20246;-87
2020/12/25 12:47:21;;;;;;;2.83;1.63;;;;;;;;;;5096341;28;20248;-87
2020/12/25 12:49:47;;;;;;;1.57;1.53;;;;;;;;;;5096190;28;20236;-87
2020/12/25 12:52:13;;;;;;;2.00;1.80;;;;;;;;;;5096288;28;20241;-85
2020/12/25 12:54:40;;;;;;;2.87;1.67;;;;;;;;;;5095555;28;20269;-87
2020/12/25 12:57:07;;;;;;;3.90;2.20;;;;;;;;;;5129038;27;20820;-87
2020/12/25 12:59:33;;;;;;;3.47;1.90;;;;;;;;;;5095190;28;20233;-86
2020/12/25 13:01:59;;;;;;;4.50;2.20;;;;;;;;;;5095366;28;20645;-84
2020/12/25 13:04:25;;;;;;;2.20;1.60;;;;;;;;;;5094234;28;20233;-85
2020/12/25 13:06:51;;;;;;;2.22;1.63;;;;;;;;;;5094444;28;20791;-85
2020/12/25 13:09:17;;;;;;;2.17;1.43;;;;;;;;;;5094822;28;20229;-85
2020/12/25 13:11:44;;;;;;;2.67;1.30;;;;;;;;;;5095113;28;20236;-83
2020/12/25 13:14:11;;;;;;;2.00;1.70;;;;;;;;;;5094793;28;20635;-83
2020/12/25 13:16:37;;;;;;;1.63;1.53;;;;;;;;;;5095212;28;20245;-83
2020/12/25 13:19:03;;;;;;;1.63;1.53;;;;;;;;;;5094722;28;20634;-82
2020/12/25 13:21:29;;;;;;;2.90;2.63;;;;;;;;;;5095076;28;20222;-84
2020/12/25 13:23:56;;;;;;;3.27;3.07;;;;;;;;;;5094876;28;20237;-83
2020/12/25 13:26:23;;;;;;;2.23;2.10;;;;;;;;;;5094869;28;20621;-86
2020/12/25 13:28:50;;;;;;;2.73;1.80;;;;;;;;;;5094622;28;20489;-83
2020/12/25 13:31:17;;;;;;;2.50;1.67;;;;;;;;;;5094086;28;20229;-84
2020/12/25 13:33:43;;;;;;;1.27;1.27;;;;;;;;;;5094252;28;20233;-86
2020/12/25 13:36:10;;;;;;;1.60;1.50;;;;;;;;;;5094484;28;20249;-85
2020/12/25 13:38:36;;;;;;;1.40;1.40;;;;;;;;;;5094613;28;20234;-86
2020/12/25 13:41:04;;;;;;;1.90;1.80;;;;;;;;;;5094582;28;20266;-84
2020/12/25 13:43:30;;;;;;;1.70;1.60;;;;;;;;;;5094510;28;20229;-83
2020/12/25 13:45:57;;;;;;;2.33;2.13;;;;;;;;;;5093517;28;20272;-85
2020/12/25 13:48:23;;;;;;;3.03;2.10;;;;;;;;;;5094734;28;20225;-85
2020/12/25 13:50:49;;;;;;;2.43;2.23;;;;;;;;;;5094209;28;20210;-83
2020/12/25 13:53:15;;;;;;;2.80;2.00;;;;;;;;;;5094648;28;20233;-85
2020/12/25 13:55:41;;;;;;;1.70;1.60;;;;;;;;;;5093953;28;20245;-83
2020/12/25 13:58:07;;;;;;;1.60;1.50;;;;;;;;;;5094713;28;20234;-83
2020/12/25 14:00:34;;;;;;;2.23;2.00;;;;;;;;;;5093329;28;20787;-86
2020/12/25 14:03:00;;;;;;;3.20;1.80;;;;;;;;;;5095071;28;20240;-85
2020/12/25 14:05:26;;;;;;;4.17;1.50;;;;;;;;;;5095213;28;20229;-84
2020/12/25 14:07:53;;;;;;;1.83;1.60;;;;;;;;;;5095088;28;20233;-88
2020/12/25 14:10:19;;;;;;;3.00;1.47;;;;;;;;;;5095271;28;20233;-89
2020/12/25 14:12:45;;;;;;;3.00;1.53;;;;;;;;;;5095391;28;20229;-85
2020/12/25 14:15:11;;;;;;;3.67;1.70;;;;;;;;;;5094853;28;20260;-82
2020/12/25 14:17:37;;;;;;;1.70;1.60;;;;;;;;;;5095464;28;20229;-86
2020/12/25 14:20:04;;;;;;;4.60;2.27;;;;;;;;;;5094935;28;20237;-86
2020/12/25 14:22:30;;;;;;;7.53;2.47;;;;;;;;;;5093671;28;20784;-82
2020/12/25 14:24:56;;;;;;;2.40;2.20;;;;;;;;;;5094680;28;20225;-87
2020/12/25 14:27:22;;;;;;;3.43;2.47;;;;;;;;;;5094924;28;20225;-84
2020/12/25 14:29:48;;;;;;;4.83;3.27;;;;;;;;;;5094513;28;20229;-82
2020/12/25 14:32:14;;;;;;;5.63;3.37;;;;;;;;;;5095073;28;20237;-85
2020/12/25 14:34:40;;;;;;;4.37;2.70;;;;;;;;;;5094522;28;20256;-84
2020/12/25 14:37:07;;;;;;;5.00;2.53;;;;;;;;;;5094893;28;20225;-86
2020/12/25 14:39:34;;;;;;;2.20;1.67;;;;;;;;;;5094764;28;20236;-83